Time;durP1;ratioP1;P1;durP2;ratioP2;P2;SDS_P1;SDS_P2;PMS_P1;PMS_P2;Temp;Humidity;BMP_temperature;BMP_pressure;BME280_temperature;BME280_humidity;BME280_pressure;Samples;Min_cycle;Max_cycle;Signal;HPM_P1;HPM_P2
2023/05/09 00:02:03;;;;;;;13.90;8.63;;;11.30;49.50;;;;;;5022131;28;115850;-80
2023/05/09 00:04:31;;;;;;;12.10;9.00;;;11.20;49.40;;;;;;5020670;28;115095;-79
2023/05/09 00:06:58;;;;;;;15.75;9.85;;;11.30;49.30;;;;;;5020806;27;117816;-80
2023/05/09 00:09:26;;;;;;;12.00;8.65;;;11.30;49.20;;;;;;5020669;28;114404;-81
2023/05/09 00:11:53;;;;;;;13.60;10.38;;;11.20;49.30;;;;;;5020349;28;114591;-80
2023/05/09 00:14:21;;;;;;;17.73;13.13;;;11.20;49.10;;;;;;5019959;28;115007;-81
2023/05/09 00:16:48;;;;;;;17.17;11.93;;;11.20;48.20;;;;;;5021151;28;115388;-80
2023/05/09 00:19:15;;;;;;;13.40;9.60;;;11.10;48.20;;;;;;5021554;28;114312;-81
2023/05/09 00:21:42;;;;;;;14.90;10.15;;;11.00;49.30;;;;;;5021081;28;114486;-81
2023/05/09 00:24:09;;;;;;;15.82;10.95;;;11.00;49.40;;;;;;5020999;28;114942;-81
2023/05/09 00:26:36;;;;;;;15.32;11.57;;;11.00;49.50;;;;;;5020758;28;114635;-81
2023/05/09 00:29:04;;;;;;;11.50;9.50;;;11.00;49.20;;;;;;5019553;28;114498;-80
2023/05/09 00:31:32;;;;;;;14.10;10.05;;;11.00;49.50;;;;;;5009578;28;114404;-81
2023/05/09 00:34:00;;;;;;;14.82;11.77;;;10.90;49.70;;;;;;5000931;28;114916;-80
2023/05/09 00:36:27;;;;;;;13.95;10.82;;;10.90;49.10;;;;;;5000653;28;115024;-80
2023/05/09 00:38:54;;;;;;;15.10;10.50;;;10.80;49.30;;;;;;4983371;28;114634;-80
2023/05/09 00:41:21;;;;;;;15.57;11.32;;;10.80;49.80;;;;;;5001207;28;114511;-80
2023/05/09 00:43:48;;;;;;;15.43;12.27;;;10.80;50.10;;;;;;4999948;28;114907;-80
2023/05/09 00:46:15;;;;;;;13.15;10.77;;;10.80;49.40;;;;;;4999872;28;114662;-80
2023/05/09 00:48:43;;;;;;;13.90;10.27;;;10.90;49.70;;;;;;5005168;28;117653;-80
2023/05/09 00:51:10;;;;;;;13.75;10.90;;;10.90;49.90;;;;;;4986117;28;115067;-81
2023/05/09 00:53:37;;;;;;;13.43;10.20;;;11.00;49.90;;;;;;4982449;28;115556;-81
2023/05/09 00:56:05;;;;;;;14.57;10.48;;;11.00;50.10;;;;;;4985182;28;114755;-81
2023/05/09 00:58:32;;;;;;;14.55;10.60;;;10.90;49.90;;;;;;5021050;27;114268;-81
2023/05/09 01:01:01;;;;;;;15.93;11.35;;;10.90;50.30;;;;;;5021610;28;114547;-81
2023/05/09 01:03:29;;;;;;;14.20;10.05;;;11.00;49.90;;;;;;5002890;28;115152;-81
2023/05/09 01:06:18;;;;;;;13.52;9.82;;;11.00;50.00;;;;;;5020436;28;115455;-81
2023/05/09 01:09:10;;;;;;;16.08;12.20;;;11.00;50.20;;;;;;5005784;28;114323;-80
2023/05/09 01:12:10;;;;;;;13.63;10.07;;;11.10;49.60;;;;;;4999850;28;114353;-80
2023/05/09 01:14:50;;;;;;;12.63;10.40;;;11.10;50.10;;;;;;4982643;28;114937;-81
2023/05/09 01:17:47;;;;;;;14.38;10.43;;;11.00;50.00;;;;;;4982869;28;115132;-81
2023/05/09 01:20:30;;;;;;;15.73;11.25;;;11.10;49.90;;;;;;5002135;28;114926;-81
2023/05/09 01:23:24;;;;;;;15.10;12.18;;;11.00;49.80;;;;;;5017921;28;117026;-80
2023/05/09 01:26:00;;;;;;;15.80;12.50;;;10.90;49.80;;;;;;5013854;27;115041;-81
2023/05/09 01:28:35;;;;;;;14.48;10.57;;;10.90;49.90;;;;;;5033784;27;118577;-81
2023/05/09 01:31:03;;;;;;;14.32;11.10;;;10.90;50.40;;;;;;4988161;28;114672;-81
2023/05/09 01:33:31;;;;;;;14.82;13.07;;;10.90;50.30;;;;;;5000900;28;114579;-81
2023/05/09 01:36:00;;;;;;;13.70;11.32;;;10.90;49.70;;;;;;4982240;28;114903;-81
2023/05/09 01:38:28;;;;;;;15.68;11.35;;;10.90;50.00;;;;;;5021405;28;114662;-81
2023/05/09 01:40:57;;;;;;;15.13;11.20;;;10.90;50.10;;;;;;5021790;28;114344;-81
2023/05/09 01:43:25;;;;;;;12.60;11.07;;;10.90;49.90;;;;;;4983925;28;114580;-81
2023/05/09 01:45:53;;;;;;;14.63;11.05;;;10.90;50.30;;;;;;4971796;28;114931;-81
2023/05/09 01:48:20;;;;;;;13.35;10.77;;;10.90;49.90;;;;;;4984440;28;117103;-81
2023/05/09 01:50:48;;;;;;;14.38;10.93;;;10.90;50.00;;;;;;4967908;28;114396;-81
2023/05/09 01:53:15;;;;;;;13.02;9.98;;;10.90;50.10;;;;;;4980223;28;114891;-80
2023/05/09 01:55:42;;;;;;;14.02;10.27;;;10.90;49.90;;;;;;4983687;28;116026;-80
2023/05/09 01:58:10;;;;;;;13.68;10.85;;;10.90;50.20;;;;;;5002033;28;114889;-81
2023/05/09 02:00:38;;;;;;;12.50;10.38;;;10.90;50.10;;;;;;4988687;28;114600;-81
2023/05/09 02:03:05;;;;;;;14.55;10.25;;;10.90;50.20;;;;;;4971564;28;114734;-81
2023/05/09 02:05:32;;;;;;;13.18;10.75;;;10.90;50.30;;;;;;5001730;28;114936;-81
2023/05/09 02:08:00;;;;;;;14.77;10.63;;;10.90;50.00;;;;;;4985555;28;116123;-81
2023/05/09 02:10:27;;;;;;;13.23;9.90;;;10.90;50.20;;;;;;5001223;28;114466;-80
2023/05/09 02:12:55;;;;;;;13.25;9.80;;;11.00;50.20;;;;;;5004933;28;117049;-80
2023/05/09 02:15:22;;;;;;;14.05;10.00;;;10.90;50.10;;;;;;5001795;28;114908;-81
2023/05/09 02:17:50;;;;;;;13.23;9.32;;;10.90;49.50;;;;;;4984628;28;115967;-81
2023/05/09 02:20:17;;;;;;;13.10;10.43;;;10.90;50.00;;;;;;5017623;28;114514;-81
2023/05/09 02:22:44;;;;;;;12.18;9.23;;;10.90;49.40;;;;;;5020570;27;118468;-80
2023/05/09 02:25:15;;;;;;;14.57;10.10;;;10.90;49.90;;;;;;5021445;28;115310;-81
2023/05/09 02:27:44;;;;;;;13.43;9.60;;;10.80;50.10;;;;;;4990560;28;115661;-81
2023/05/09 02:30:22;;;;;;;12.73;9.70;;;10.90;50.20;;;;;;5003356;28;114516;-80
2023/05/09 02:32:52;;;;;;;13.30;9.18;;;10.90;49.70;;;;;;4987187;28;114494;-80
2023/05/09 02:35:20;;;;;;;11.43;9.55;;;10.80;50.10;;;;;;5001413;28;116357;-80
2023/05/09 02:37:47;;;;;;;12.00;8.90;;;10.80;49.20;;;;;;5001350;28;115471;-81
2023/05/09 02:40:14;;;;;;;12.52;8.57;;;10.80;50.00;;;;;;4985952;28;114529;-81
2023/05/09 02:42:41;;;;;;;10.63;8.40;;;10.80;50.10;;;;;;4986086;28;114483;-81
2023/05/09 02:45:09;;;;;;;11.43;8.60;;;10.80;50.20;;;;;;5001241;28;114895;-81
2023/05/09 02:47:37;;;;;;;11.88;8.48;;;10.80;49.90;;;;;;5002317;28;116547;-81
2023/05/09 02:50:05;;;;;;;11.85;8.35;;;10.80;50.00;;;;;;5035047;27;114278;-81
2023/05/09 02:52:35;;;;;;;10.05;7.93;;;10.80;49.80;;;;;;5005541;28;114635;-79
2023/05/09 02:55:03;;;;;;;10.63;8.13;;;10.80;49.60;;;;;;5021470;28;115896;-81
2023/05/09 02:57:33;;;;;;;10.13;7.75;;;10.80;50.10;;;;;;5021368;28;115462;-81
2023/05/09 03:00:02;;;;;;;11.27;8.43;;;10.80;50.00;;;;;;5020480;28;114472;-79
2023/05/09 03:02:31;;;;;;;11.40;8.07;;;10.80;50.10;;;;;;4989236;28;114279;-79
2023/05/09 03:04:58;;;;;;;11.73;8.10;;;10.80;50.00;;;;;;5022499;27;115635;-79
2023/05/09 03:07:25;;;;;;;10.02;8.02;;;10.80;49.70;;;;;;5021201;28;114697;-81
2023/05/09 03:09:52;;;;;;;11.30;8.18;;;10.80;50.10;;;;;;5001744;28;114406;-80
2023/05/09 03:12:19;;;;;;;14.18;8.90;;;10.80;49.80;;;;;;5003014;28;114154;-80
2023/05/09 03:14:50;;;;;;;11.27;8.50;;;10.70;49.30;;;;;;5000678;28;114865;-80
2023/05/09 03:17:20;;;;;;;11.13;8.35;;;10.70;49.70;;;;;;5019218;27;116676;-80
2023/05/09 03:19:47;;;;;;;10.60;8.70;;;10.70;49.60;;;;;;5023519;27;114438;-81
2023/05/09 03:22:14;;;;;;;11.85;7.80;;;10.70;49.30;;;;;;5003717;28;116159;-79
2023/05/09 03:24:52;;;;;;;10.68;7.97;;;10.70;49.70;;;;;;5022320;28;115550;-80
2023/05/09 03:27:19;;;;;;;9.77;7.53;;;10.70;50.10;;;;;;5001564;28;114824;-80
2023/05/09 03:29:48;;;;;;;10.13;7.60;;;10.70;50.20;;;;;;5020123;27;115620;-80
2023/05/09 03:32:17;;;;;;;11.25;7.88;;;10.70;50.10;;;;;;4999916;28;114770;-81
2023/05/09 03:34:44;;;;;;;10.52;8.02;;;10.70;49.70;;;;;;5002383;28;114905;-80
2023/05/09 03:37:11;;;;;;;14.57;8.60;;;10.80;50.00;;;;;;5005260;28;115704;-80
2023/05/09 03:39:39;;;;;;;12.77;8.13;;;10.80;49.30;;;;;;4999290;28;114543;-80
2023/05/09 03:42:06;;;;;;;12.25;8.75;;;10.80;49.50;;;;;;5019615;28;114409;-80
2023/05/09 03:44:35;;;;;;;10.57;8.10;;;10.80;48.90;;;;;;5019889;28;114998;-80
2023/05/09 03:47:02;;;;;;;13.05;9.38;;;10.80;49.60;;;;;;5021071;28;114590;-79
2023/05/09 03:49:35;;;;;;;10.35;7.55;;;10.80;48.40;;;;;;4985987;28;114472;-80
2023/05/09 03:52:03;;;;;;;14.85;9.85;;;10.80;50.00;;;;;;5020183;28;114594;-80
2023/05/09 03:54:32;;;;;;;11.00;8.13;;;11.10;49.20;;;;;;5019484;28;115549;-80
2023/05/09 03:57:00;;;;;;;9.73;7.55;;;11.40;48.20;;;;;;5019814;28;115746;-80
2023/05/09 03:59:27;;;;;;;12.32;8.05;;;11.50;48.50;;;;;;5036047;27;114506;-80
2023/05/09 04:01:55;;;;;;;10.60;8.20;;;11.70;47.40;;;;;;5021844;27;114444;-81
2023/05/09 04:04:26;;;;;;;11.35;8.77;;;11.80;47.70;;;;;;4987407;28;115619;-80
2023/05/09 04:06:53;;;;;;;9.05;6.88;;;12.00;46.70;;;;;;5000504;28;115884;-79
2023/05/09 04:09:20;;;;;;;10.85;8.82;;;12.00;47.30;;;;;;5000756;28;118633;-80
2023/05/09 04:11:48;;;;;;;14.63;10.25;;;12.00;46.80;;;;;;5014621;28;114591;-79
2023/05/09 04:14:15;;;;;;;13.82;11.07;;;12.10;46.50;;;;;;5019387;28;115066;-80
2023/05/09 04:16:42;;;;;;;11.10;8.27;;;12.10;45.60;;;;;;4984884;28;114571;-80
2023/05/09 04:19:09;;;;;;;13.35;8.30;;;12.00;46.80;;;;;;5001809;28;114507;-80
2023/05/09 04:21:37;;;;;;;11.10;8.00;;;12.10;46.50;;;;;;5020386;28;114599;-80
2023/05/09 04:24:06;;;;;;;11.73;8.77;;;12.20;46.70;;;;;;5019913;28;115103;-80
2023/05/09 04:26:39;;;;;;;11.55;8.13;;;12.30;46.30;;;;;;5004026;28;114550;-80
2023/05/09 04:29:10;;;;;;;13.05;9.00;;;12.40;46.50;;;;;;5018159;28;114521;-80
2023/05/09 04:31:37;;;;;;;12.27;7.65;;;12.60;45.90;;;;;;4984959;28;114627;-81
2023/05/09 04:34:06;;;;;;;12.30;8.48;;;12.70;46.00;;;;;;5000156;28;117163;-80
2023/05/09 04:36:36;;;;;;;12.98;8.90;;;12.80;45.60;;;;;;5034154;27;114624;-80
2023/05/09 04:39:04;;;;;;;13.25;9.25;;;12.90;44.90;;;;;;5018445;28;114804;-82
2023/05/09 04:41:33;;;;;;;13.98;9.00;;;12.80;44.50;;;;;;5020307;28;114613;-80
2023/05/09 04:44:02;;;;;;;12.88;9.02;;;12.90;44.50;;;;;;5020203;27;114967;-80
2023/05/09 04:46:29;;;;;;;15.18;9.98;;;12.80;44.60;;;;;;5000458;28;114683;-79
2023/05/09 04:48:59;;;;;;;13.80;8.93;;;12.60;44.10;;;;;;5015156;28;114469;-80
2023/05/09 04:51:26;;;;;;;11.82;7.65;;;12.50;44.20;;;;;;5010929;28;114644;-81
2023/05/09 04:53:53;;;;;;;11.45;7.82;;;12.20;45.50;;;;;;5007844;28;114591;-81
2023/05/09 04:56:26;;;;;;;11.82;8.55;;;12.20;45.60;;;;;;5026136;27;115824;-81
2023/05/09 04:58:53;;;;;;;12.25;8.82;;;12.10;45.90;;;;;;4991969;28;114505;-81
2023/05/09 05:01:20;;;;;;;10.70;7.63;;;12.20;45.70;;;;;;5004326;28;114482;-80
2023/05/09 05:03:49;;;;;;;11.88;8.90;;;12.40;46.00;;;;;;5007329;28;115098;-81
2023/05/09 05:06:16;;;;;;;11.48;8.43;;;12.60;45.10;;;;;;5010096;28;118136;-80
2023/05/09 05:08:43;;;;;;;12.02;8.70;;;12.70;45.20;;;;;;5012715;28;114488;-81
2023/05/09 05:11:12;;;;;;;11.40;8.27;;;12.80;44.70;;;;;;5009697;28;114602;-81
2023/05/09 05:13:39;;;;;;;10.05;8.13;;;13.00;44.30;;;;;;4992711;28;115151;-81
2023/05/09 05:16:06;;;;;;;13.02;8.15;;;13.10;44.60;;;;;;4998498;28;118439;-80
2023/05/09 05:18:33;;;;;;;11.10;8.63;;;13.20;43.80;;;;;;5018308;28;114443;-81
2023/05/09 05:21:01;;;;;;;11.20;7.20;;;13.20;43.60;;;;;;5028098;27;119728;-79
2023/05/09 05:23:29;;;;;;;11.50;8.20;;;13.30;43.80;;;;;;4983997;28;118369;-81
2023/05/09 05:25:56;;;;;;;10.10;6.55;;;13.30;42.80;;;;;;5010444;28;117164;-81
2023/05/09 05:28:24;;;;;;;8.68;5.63;;;13.30;42.50;;;;;;5019285;27;114274;-81
2023/05/09 05:30:52;;;;;;;8.70;6.32;;;13.20;41.70;;;;;;5003017;28;114229;-80
2023/05/09 05:33:19;;;;;;;9.23;7.32;;;13.10;42.90;;;;;;5004135;28;115105;-81
2023/05/09 05:35:46;;;;;;;10.85;7.10;;;13.20;43.20;;;;;;5011992;28;114642;-81
2023/05/09 05:38:13;;;;;;;11.10;6.93;;;13.30;42.70;;;;;;5022327;28;114505;-80
2023/05/09 05:40:42;;;;;;;11.10;7.63;;;13.30;42.00;;;;;;5022838;28;114614;-81
2023/05/09 05:43:10;;;;;;;11.35;7.20;;;13.30;42.20;;;;;;5000234;28;117135;-81
2023/05/09 05:45:38;;;;;;;9.93;6.50;;;13.40;42.30;;;;;;5005995;28;114709;-80
2023/05/09 05:48:09;;;;;;;9.13;6.47;;;13.50;43.20;;;;;;5006587;28;115445;-81
2023/05/09 05:50:36;;;;;;;9.55;6.03;;;13.60;41.80;;;;;;5001670;28;114609;-81
2023/05/09 05:53:04;;;;;;;7.57;5.20;;;13.70;42.30;;;;;;4997673;28;115020;-82
2023/05/09 05:55:32;;;;;;;9.05;5.47;;;13.90;40.90;;;;;;5001635;28;114548;-81
2023/05/09 05:57:59;;;;;;;7.93;5.63;;;13.90;41.90;;;;;;5003599;28;117318;-81
2023/05/09 06:00:26;;;;;;;8.00;5.38;;;14.00;40.50;;;;;;5002314;28;114615;-81
2023/05/09 06:03:00;;;;;;;7.35;5.45;;;14.00;40.40;;;;;;5020045;28;115120;-81
2023/05/09 06:05:33;;;;;;;8.17;5.93;;;13.90;41.30;;;;;;5018509;28;114988;-81
2023/05/09 06:08:01;;;;;;;10.23;6.28;;;14.10;40.80;;;;;;5000154;28;114331;-81
2023/05/09 06:10:31;;;;;;;6.75;4.95;;;14.20;41.00;;;;;;5001621;28;114624;-82
2023/05/09 06:12:59;;;;;;;8.20;5.32;;;14.30;39.40;;;;;;5011954;28;115493;-81
2023/05/09 06:15:26;;;;;;;8.35;5.32;;;14.30;39.10;;;;;;4990694;28;116762;-82
2023/05/09 06:17:54;;;;;;;7.28;5.55;;;14.10;39.70;;;;;;4998797;27;115601;-81
2023/05/09 06:20:22;;;;;;;8.30;5.40;;;14.00;40.20;;;;;;5009678;28;118386;-81
2023/05/09 06:22:49;;;;;;;9.15;5.75;;;14.10;40.10;;;;;;4998097;27;115426;-80
2023/05/09 06:25:18;;;;;;;7.85;5.90;;;14.00;39.50;;;;;;5009294;28;115125;-81
2023/05/09 06:27:45;;;;;;;7.72;6.25;;;13.80;39.60;;;;;;4980379;28;114522;-80
2023/05/09 06:30:13;;;;;;;8.10;6.10;;;13.70;41.30;;;;;;5021074;27;114335;-81
2023/05/09 06:32:52;;;;;;;10.65;6.22;;;13.80;40.60;;;;;;5004797;28;115464;-81
2023/05/09 06:35:19;;;;;;;8.52;6.05;;;14.10;40.40;;;;;;5001924;28;116913;-81
2023/05/09 06:37:46;;;;;;;7.20;5.65;;;14.20;39.50;;;;;;5006228;28;115471;-81
2023/05/09 06:40:15;;;;;;;9.43;6.32;;;14.20;39.30;;;;;;5017661;27;115154;-82
2023/05/09 06:42:42;;;;;;;7.60;6.07;;;14.10;39.50;;;;;;5012190;27;115932;-80
2023/05/09 06:45:10;;;;;;;6.95;5.00;;;14.00;39.80;;;;;;5005849;28;114667;-81
2023/05/09 06:47:37;;;;;;;8.30;5.72;;;14.10;40.00;;;;;;5001488;28;114513;-81
2023/05/09 06:50:05;;;;;;;8.13;5.97;;;14.30;39.80;;;;;;5008857;28;114630;-81
2023/05/09 06:52:33;;;;;;;9.07;5.97;;;14.60;39.50;;;;;;5011335;28;115008;-80
2023/05/09 06:55:00;;;;;;;7.68;5.97;;;14.60;38.60;;;;;;5011328;28;115530;-80
2023/05/09 06:57:27;;;;;;;7.07;5.60;;;14.50;38.90;;;;;;5015605;28;114724;-81
2023/05/09 06:59:54;;;;;;;7.72;5.70;;;14.30;39.30;;;;;;5007633;28;114500;-81
2023/05/09 07:02:22;;;;;;;6.85;5.57;;;14.30;39.50;;;;;;5013840;28;115461;-81
2023/05/09 07:04:49;;;;;;;9.00;5.65;;;14.50;39.40;;;;;;5016071;28;115232;-80
2023/05/09 07:07:16;;;;;;;8.05;5.47;;;14.60;39.40;;;;;;5003033;28;114452;-81
2023/05/09 07:09:43;;;;;;;6.15;5.40;;;14.70;39.60;;;;;;5017978;28;114615;-81
2023/05/09 07:12:10;;;;;;;8.85;5.82;;;14.70;39.00;;;;;;5013931;27;117339;-81
2023/05/09 07:14:37;;;;;;;8.63;5.28;;;14.80;39.40;;;;;;5016572;28;115052;-81
2023/05/09 07:17:04;;;;;;;6.90;5.28;;;14.90;38.60;;;;;;5014091;28;114575;-81
2023/05/09 07:19:50;;;;;;;6.97;5.40;;;14.90;38.60;;;;;;5002090;28;114527;-81
2023/05/09 07:22:17;;;;;;;8.10;5.03;;;14.90;38.40;;;;;;5017121;28;115057;-81
2023/05/09 07:24:45;;;;;;;7.22;5.30;;;14.80;37.60;;;;;;5010909;28;115068;-81
2023/05/09 07:27:12;;;;;;;8.60;5.45;;;14.50;38.80;;;;;;5012044;28;114726;-81
2023/05/09 07:29:39;;;;;;;6.43;4.97;;;14.40;39.40;;;;;;5017368;28;115045;-81
2023/05/09 07:32:06;;;;;;;6.55;5.15;;;14.40;38.70;;;;;;5011584;28;114882;-81
2023/05/09 07:34:34;;;;;;;6.05;4.82;;;14.40;38.70;;;;;;5017617;28;114584;-81
2023/05/09 07:37:01;;;;;;;6.22;5.05;;;14.40;38.60;;;;;;5017429;28;114461;-81
2023/05/09 07:39:29;;;;;;;7.07;4.97;;;14.40;39.00;;;;;;5017377;28;114521;-82
2023/05/09 07:41:56;;;;;;;7.97;5.13;;;14.60;39.30;;;;;;5008005;28;115465;-81
2023/05/09 07:44:23;;;;;;;8.02;5.53;;;14.70;39.20;;;;;;5014417;27;114602;-81
2023/05/09 07:46:50;;;;;;;6.78;5.65;;;14.80;38.60;;;;;;5009240;28;114467;-82
2023/05/09 07:49:18;;;;;;;7.50;5.10;;;14.80;38.60;;;;;;5011894;28;114625;-81
2023/05/09 07:51:45;;;;;;;7.70;5.10;;;14.80;38.10;;;;;;5016925;27;119586;-81
2023/05/09 07:54:19;;;;;;;7.50;4.75;;;14.80;38.70;;;;;;5006650;28;115573;-81
2023/05/09 07:56:47;;;;;;;9.70;5.70;;;14.80;38.40;;;;;;5001465;28;114422;-81
2023/05/09 07:59:14;;;;;;;11.13;7.60;;;14.90;38.20;;;;;;5019374;28;114223;-80
2023/05/09 08:01:41;;;;;;;7.55;5.18;;;15.10;38.20;;;;;;5021187;28;115006;-81
2023/05/09 08:04:08;;;;;;;8.10;5.40;;;15.30;38.10;;;;;;5009910;28;114848;-81
2023/05/09 08:06:36;;;;;;;6.97;4.60;;;15.40;37.70;;;;;;5020320;27;116248;-81
2023/05/09 08:09:03;;;;;;;7.47;4.93;;;15.50;37.60;;;;;;5000658;28;114529;-81
2023/05/09 08:11:34;;;;;;;10.93;5.65;;;15.60;38.00;;;;;;5019066;28;114988;-81
2023/05/09 08:14:02;;;;;;;6.82;5.22;;;15.60;37.30;;;;;;5012824;28;116107;-82
2023/05/09 08:16:29;;;;;;;12.45;5.15;;;15.70;36.90;;;;;;5017430;28;115724;-81
2023/05/09 08:18:57;;;;;;;6.28;5.07;;;15.70;37.20;;;;;;5018977;28;114569;-81
2023/05/09 08:21:25;;;;;;;6.50;5.05;;;15.90;37.40;;;;;;5008900;28;115164;-81
2023/05/09 08:23:52;;;;;;;8.13;5.40;;;16.00;36.60;;;;;;5000152;28;115568;-81
2023/05/09 08:26:21;;;;;;;7.88;5.10;;;16.10;36.40;;;;;;5003219;28;114530;-81
2023/05/09 08:28:48;;;;;;;7.80;4.97;;;16.20;36.70;;;;;;5003540;28;114711;-81
2023/05/09 08:31:15;;;;;;;7.28;5.45;;;16.30;36.60;;;;;;4999920;28;115279;-80
2023/05/09 08:33:43;;;;;;;7.72;5.53;;;16.40;36.00;;;;;;5012134;28;114968;-81
2023/05/09 08:36:10;;;;;;;7.45;4.80;;;16.30;35.60;;;;;;5008417;28;116046;-81
2023/05/09 08:38:39;;;;;;;7.05;4.72;;;16.30;36.30;;;;;;5000442;28;114379;-80
2023/05/09 08:41:06;;;;;;;7.30;4.95;;;16.30;36.40;;;;;;5011617;28;115117;-81
2023/05/09 08:43:34;;;;;;;6.65;4.85;;;16.30;35.60;;;;;;5020820;28;116380;-80
2023/05/09 08:46:08;;;;;;;7.80;4.95;;;16.20;35.90;;;;;;5020284;28;114585;-80
2023/05/09 08:48:39;;;;;;;6.55;4.75;;;16.00;35.90;;;;;;5019861;28;115392;-80
2023/05/09 08:51:06;;;;;;;6.07;4.93;;;15.90;36.10;;;;;;5005144;28;115234;-81
2023/05/09 08:53:33;;;;;;;6.72;5.05;;;16.00;36.10;;;;;;5002713;28;114652;-81
2023/05/09 08:56:02;;;;;;;6.30;4.18;;;15.90;35.80;;;;;;5018025;28;114419;-80
2023/05/09 08:58:30;;;;;;;8.15;4.30;;;15.70;35.80;;;;;;5000966;28;114362;-81
2023/05/09 09:00:57;;;;;;;7.68;4.03;;;15.70;36.20;;;;;;4982392;28;114888;-81
2023/05/09 09:03:25;;;;;;;7.70;4.30;;;15.80;36.20;;;;;;5001162;28;116112;-81
2023/05/09 09:05:53;;;;;;;4.80;3.90;;;16.00;36.30;;;;;;5010458;28;114472;-81
2023/05/09 09:08:21;;;;;;;5.40;4.47;;;16.00;35.50;;;;;;5015271;28;114208;-81
2023/05/09 09:10:49;;;;;;;6.55;4.60;;;16.00;35.40;;;;;;5022138;27;115372;-81
2023/05/09 09:13:17;;;;;;;5.85;4.00;;;16.20;35.50;;;;;;5005060;28;114617;-80
2023/05/09 09:15:45;;;;;;;7.20;5.70;;;16.30;35.20;;;;;;5001377;28;114520;-81
2023/05/09 09:18:22;;;;;;;5.57;3.95;;;16.30;35.60;;;;;;5019621;28;114391;-81
2023/05/09 09:21:00;;;;;;;6.55;4.32;;;16.40;34.70;;;;;;5013547;28;114871;-81
2023/05/09 09:23:27;;;;;;;6.57;4.50;;;16.50;34.70;;;;;;5003726;28;114636;-80
2023/05/09 09:25:59;;;;;;;5.75;4.13;;;16.40;35.20;;;;;;5009326;28;114429;-80
2023/05/09 09:28:28;;;;;;;6.95;4.32;;;16.30;34.60;;;;;;5003673;28;114310;-80
2023/05/09 09:30:55;;;;;;;5.65;4.10;;;16.20;34.80;;;;;;5014705;28;115101;-81
2023/05/09 09:33:24;;;;;;;10.35;5.25;;;16.30;35.10;;;;;;5022470;28;114730;-81
2023/05/09 09:35:52;;;;;;;8.18;4.85;;;16.20;35.70;;;;;;5019697;28;114508;-81
2023/05/09 09:38:21;;;;;;;5.78;4.78;;;16.20;35.90;;;;;;5022800;28;115200;-81
2023/05/09 09:40:55;;;;;;;6.40;4.80;;;16.30;35.40;;;;;;5018328;28;114935;-81
2023/05/09 09:43:29;;;;;;;5.15;4.00;;;16.10;35.40;;;;;;5013475;28;114799;-81
2023/05/09 09:46:03;;;;;;;;;;;15.90;35.60;;;;;;5020669;28;114279;-81
2023/05/09 09:48:33;;;;;;;7.60;4.68;;;15.70;36.60;;;;;;5014516;28;114384;-81
2023/05/09 09:51:10;;;;;;;8.73;5.10;;;15.70;36.00;;;;;;5021417;28;114970;-80
2023/05/09 09:53:41;;;;;;;6.50;4.25;;;15.70;36.60;;;;;;4994002;28;117365;-81
2023/05/09 09:56:08;;;;;;;7.47;5.20;;;15.80;36.20;;;;;;5020414;27;115129;-81
2023/05/09 09:58:35;;;;;;;6.75;4.78;;;16.00;36.00;;;;;;4989849;28;114694;-81
2023/05/09 10:01:06;;;;;;;7.50;4.95;;;16.00;35.50;;;;;;5006192;28;114899;-80
2023/05/09 10:03:38;;;;;;;9.00;5.18;;;16.10;35.60;;;;;;5007701;28;115006;-81
2023/05/09 10:06:11;;;;;;;6.13;4.75;;;16.20;35.50;;;;;;5003854;28;114428;-81
2023/05/09 10:08:40;;;;;;;6.47;4.68;;;16.30;35.90;;;;;;4999174;28;114569;-81
2023/05/09 10:11:08;;;;;;;6.88;4.68;;;16.30;35.70;;;;;;5003105;28;116314;-81
2023/05/09 10:13:37;;;;;;;6.13;4.97;;;16.30;35.70;;;;;;5000593;28;119284;-81
2023/05/09 10:16:05;;;;;;;5.70;5.03;;;16.30;36.10;;;;;;5002807;28;117662;-81
2023/05/09 10:18:32;;;;;;;7.35;5.00;;;16.30;35.70;;;;;;4987155;28;114576;-81
2023/05/09 10:21:02;;;;;;;6.20;4.50;;;16.20;36.00;;;;;;4986614;28;115515;-81
2023/05/09 10:23:30;;;;;;;28.15;20.70;;;16.10;36.30;;;;;;5001565;28;117556;-81
2023/05/09 10:26:07;;;;;;;9.77;6.78;;;16.20;36.50;;;;;;4985630;28;114458;-81
2023/05/09 10:28:35;;;;;;;9.32;5.90;;;16.40;37.00;;;;;;5018574;28;117285;-81
2023/05/09 10:31:17;;;;;;;10.73;7.65;;;16.60;36.30;;;;;;4985121;28;118887;-81
2023/05/09 10:33:48;;;;;;;6.97;5.78;;;16.70;36.20;;;;;;5006142;28;115372;-80
2023/05/09 10:36:17;;;;;;;8.43;5.82;;;16.60;36.30;;;;;;5021895;28;114508;-82
2023/05/09 10:38:44;;;;;;;7.60;5.22;;;16.60;36.10;;;;;;5023430;28;114394;-81
2023/05/09 10:41:12;;;;;;;6.78;4.90;;;16.60;36.00;;;;;;5012889;28;116505;-81
2023/05/09 10:43:39;;;;;;;6.80;5.10;;;16.80;35.80;;;;;;4990037;28;114705;-82
2023/05/09 10:46:06;;;;;;;7.22;4.80;;;16.90;35.40;;;;;;4989961;28;118684;-79
2023/05/09 10:48:33;;;;;;;6.43;5.13;;;16.90;35.70;;;;;;5000607;28;114615;-82
2023/05/09 10:51:02;;;;;;;6.43;5.10;;;16.80;36.00;;;;;;5018913;28;114853;-80
2023/05/09 10:53:47;;;;;;;6.32;4.78;;;16.70;36.40;;;;;;5013759;28;114626;-80
2023/05/09 10:56:26;;;;;;;7.13;4.88;;;16.60;36.30;;;;;;4994193;28;115209;-80
2023/05/09 10:58:54;;;;;;;8.23;5.32;;;16.60;36.10;;;;;;5002411;28;114571;-80
2023/05/09 11:01:37;;;;;;;6.50;4.65;;;16.50;36.20;;;;;;5014076;28;114915;-81
2023/05/09 11:04:13;;;;;;;7.25;4.75;;;16.40;36.30;;;;;;5009043;28;116975;-81
2023/05/09 11:06:40;;;;;;;6.68;4.68;;;16.40;36.70;;;;;;5014504;28;114451;-81
2023/05/09 11:09:31;;;;;;;7.90;5.00;;;16.30;36.70;;;;;;5015455;28;114517;-81
2023/05/09 11:12:03;;;;;;;6.45;4.63;;;16.50;36.80;;;;;;5009073;28;115088;-81
2023/05/09 11:14:31;;;;;;;5.18;4.47;;;16.60;36.20;;;;;;5021225;28;114663;-81
2023/05/09 11:17:01;;;;;;;7.43;4.70;;;16.40;35.70;;;;;;5015549;28;114518;-81
2023/05/09 11:19:37;;;;;;;7.07;4.50;;;16.30;36.00;;;;;;5014058;28;115323;-81
2023/05/09 11:22:26;;;;;;;5.82;4.25;;;16.20;36.00;;;;;;5005437;28;115583;-80
2023/05/09 11:25:03;;;;;;;6.43;4.88;;;16.30;35.90;;;;;;4997732;28;114892;-82
2023/05/09 11:27:37;;;;;;;8.25;4.00;;;16.30;36.20;;;;;;5001412;28;114428;-79
2023/05/09 11:30:06;;;;;;;7.05;4.43;;;16.40;36.00;;;;;;5017165;28;115963;-81
2023/05/09 11:32:40;;;;;;;6.07;4.47;;;16.50;36.20;;;;;;5003574;28;114900;-81
2023/05/09 11:35:08;;;;;;;7.40;4.50;;;16.50;36.40;;;;;;5011269;28;114716;-81
2023/05/09 11:37:45;;;;;;;6.35;4.47;;;16.40;36.40;;;;;;5018992;28;114586;-81
2023/05/09 11:40:13;;;;;;;6.10;4.38;;;16.30;36.70;;;;;;5011249;28;114679;-81
2023/05/09 11:42:42;;;;;;;6.15;4.45;;;16.10;36.70;;;;;;5013230;28;114884;-81
2023/05/09 11:45:11;;;;;;;6.40;4.32;;;16.00;36.50;;;;;;5008346;28;114856;-81
2023/05/09 11:47:47;;;;;;;6.95;4.25;;;15.80;37.30;;;;;;5044947;27;114868;-80
2023/05/09 11:50:16;;;;;;;6.05;4.13;;;15.70;37.70;;;;;;5050007;27;114747;-80
2023/05/09 11:52:43;;;;;;;5.13;4.22;;;15.60;38.00;;;;;;5041878;27;116177;-81
2023/05/09 11:55:17;;;;;;;5.47;3.80;;;15.70;37.90;;;;;;5041852;27;116770;-80
2023/05/09 11:57:47;;;;;;;6.50;4.03;;;15.70;37.20;;;;;;5041710;27;114716;-81
2023/05/09 12:00:22;;;;;;;7.53;4.00;;;15.60;37.30;;;;;;5024668;27;115260;-80
2023/05/09 12:02:50;;;;;;;5.80;4.13;;;15.60;37.50;;;;;;5041911;27;114961;-80
2023/05/09 12:05:18;;;;;;;5.47;3.67;;;15.70;37.80;;;;;;5041581;27;117372;-81
2023/05/09 12:07:45;;;;;;;4.57;3.40;;;15.80;37.80;;;;;;5041845;27;114466;-80
2023/05/09 12:10:15;;;;;;;6.03;4.00;;;15.80;37.90;;;;;;5043173;27;114731;-80
2023/05/09 12:12:43;;;;;;;5.47;4.20;;;15.80;37.60;;;;;;5041891;27;119722;-81
2023/05/09 12:15:12;;;;;;;5.13;3.95;;;15.80;37.50;;;;;;5040887;27;114599;-80
2023/05/09 12:17:41;;;;;;;8.25;3.85;;;15.80;37.70;;;;;;5030917;27;115343;-80
2023/05/09 12:20:09;;;;;;;4.90;3.85;;;15.80;37.40;;;;;;5042110;27;114632;-81
2023/05/09 12:22:36;;;;;;;5.47;3.85;;;15.80;37.60;;;;;;5039418;27;115368;-81
2023/05/09 12:25:09;;;;;;;5.85;3.45;;;15.70;38.10;;;;;;5023947;27;115749;-80
2023/05/09 12:27:37;;;;;;;5.47;3.90;;;15.80;38.40;;;;;;5040027;27;116886;-81
2023/05/09 12:30:09;;;;;;;4.65;3.60;;;15.80;38.20;;;;;;5041120;27;114708;-81
2023/05/09 12:32:38;;;;;;;7.78;3.72;;;16.00;37.90;;;;;;5036547;27;116346;-81
2023/05/09 12:35:07;;;;;;;7.75;3.78;;;16.10;36.70;;;;;;5037404;27;114701;-81
2023/05/09 12:37:34;;;;;;;4.70;3.20;;;16.10;36.90;;;;;;5040415;27;114384;-80
2023/05/09 12:40:03;;;;;;;5.97;3.60;;;16.10;37.10;;;;;;5040901;27;114525;-81
2023/05/09 12:42:32;;;;;;;5.15;3.45;;;16.20;36.90;;;;;;5035374;27;117970;-81